createdAt,value
2018-07-19T00:00:03.634Z,99031.10
2018-07-19T00:02:33.992Z,99029.83
2018-07-19T00:05:04.461Z,99027.95
2018-07-19T00:07:34.411Z,99033.80
2018-07-19T00:10:04.779Z,99030.80
2018-07-19T00:12:34.766Z,99031.13
2018-07-19T00:15:05.419Z,99030.66
2018-07-19T00:17:35.565Z,99033.41
2018-07-19T00:20:06.866Z,99028.22
2018-07-19T00:22:36.902Z,99025.46
2018-07-19T00:25:07.637Z,99025.46
2018-07-19T00:27:37.781Z,99020.83
2018-07-19T00:30:09.074Z,99023.09
2018-07-19T00:32:39.223Z,99024.25
2018-07-19T00:35:10.453Z,99018.81
2018-07-19T00:37:41.318Z,99018.91
2018-07-19T00:40:11.294Z,99015.66
2018-07-19T00:42:41.881Z,99018.76
2018-07-19T00:45:12.234Z,99016.56
2018-07-19T00:47:42.574Z,99017.70
2018-07-19T00:50:12.702Z,99021.61
2018-07-19T00:52:42.844Z,99017.55
2018-07-19T00:55:13.180Z,99008.88
2018-07-19T00:57:43.374Z,99007.14
2018-07-19T01:00:13.862Z,99005.83
2018-07-19T01:02:44.120Z,99004.55
2018-07-19T01:05:14.393Z,99007.05
2018-07-19T01:07:45.083Z,99007.39
2018-07-19T01:10:15.415Z,99007.46
2018-07-19T01:12:45.939Z,99006.65
2018-07-19T01:15:16.364Z,99001.80
2018-07-19T01:17:46.633Z,99006.18
2018-07-19T01:20:17.015Z,99004.30
2018-07-19T01:22:47.926Z,99004.30
2018-07-19T01:25:18.015Z,99003.59
2018-07-19T01:27:48.138Z,99011.38
2018-07-19T01:30:18.477Z,99016.06
2018-07-19T01:32:48.923Z,99012.84
2018-07-19T01:35:19.316Z,99014.78
2018-07-19T01:37:49.875Z,99017.04
2018-07-19T01:40:20.450Z,99015.41
2018-07-19T01:42:50.471Z,99011.94
2018-07-19T01:45:20.514Z,99015.84
2018-07-19T01:47:50.681Z,99013.72
2018-07-19T01:50:21.082Z,99016.31
2018-07-19T01:52:51.357Z,99017.78
2018-07-19T01:55:21.502Z,99017.28
2018-07-19T01:57:52.022Z,99017.06
2018-07-19T02:00:22.535Z,99016.56
2018-07-19T02:02:53.399Z,99009.69
2018-07-19T02:05:23.778Z,99023.44
2018-07-19T02:07:53.901Z,99020.13
2018-07-19T02:10:24.010Z,99019.31
2018-07-19T02:12:53.891Z,99020.44
2018-07-19T02:15:24.751Z,99020.44
2018-07-19T02:17:55.119Z,99016.63
2018-07-19T02:20:25.293Z,99021.88
2018-07-19T02:22:55.243Z,99022.44
2018-07-19T02:25:25.686Z,99026.56
2018-07-19T02:27:56.093Z,99023.34
2018-07-19T02:30:26.226Z,99030.88
2018-07-19T02:32:56.668Z,99031.49
2018-07-19T02:35:27.198Z,99030.55
2018-07-19T02:37:57.802Z,99035.30
2018-07-19T02:40:28.236Z,99030.70
2018-07-19T02:42:58.230Z,99032.47
2018-07-19T02:45:28.678Z,99043.22
2018-07-19T02:47:58.808Z,99040.22
2018-07-19T02:50:29.414Z,99042.19
2018-07-19T02:52:59.655Z,99042.97
2018-07-19T02:55:30.518Z,99048.56
2018-07-19T02:58:00.831Z,99044.99
2018-07-19T03:00:31.284Z,99047.52
2018-07-19T03:03:01.794Z,99051.39
2018-07-19T03:05:32.125Z,99047.83
2018-07-19T03:08:02.427Z,99042.42
2018-07-19T03:10:33.464Z,99050.16
2018-07-19T03:13:03.836Z,99045.56
2018-07-19T03:15:34.303Z,99051.37
2018-07-19T03:18:04.773Z,99052.58
2018-07-19T03:20:35.294Z,99052.10
2018-07-19T03:23:05.617Z,99046.41
2018-07-19T03:25:35.924Z,99051.98
2018-07-19T03:28:06.312Z,99047.95
2018-07-19T03:30:36.847Z,99048.03
2018-07-19T03:33:07.288Z,99050.53
2018-07-19T03:35:37.707Z,99050.58
2018-07-19T03:38:08.981Z,99050.11
2018-07-19T03:40:39.758Z,99057.88
2018-07-19T03:43:09.954Z,99057.37
2018-07-19T03:45:40.107Z,99068.11
2018-07-19T03:48:11.219Z,99065.36
2018-07-19T03:50:42.378Z,99072.79
2018-07-19T03:53:12.706Z,99065.19
2018-07-19T03:55:43.186Z,99069.87
2018-07-19T03:58:13.351Z,99073.52
2018-07-19T04:00:43.566Z,99068.30
2018-07-19T04:03:14.454Z,99072.70
2018-07-19T04:05:44.789Z,99076.27
2018-07-19T04:08:15.164Z,99075.98
2018-07-19T04:10:46.406Z,99084.22
2018-07-19T04:13:16.297Z,99085.59
2018-07-19T04:15:46.702Z,99080.18
2018-07-19T04:18:16.839Z,99094.78
2018-07-19T04:20:47.036Z,99096.49
2018-07-19T04:23:17.139Z,99097.53
2018-07-19T04:25:47.205Z,99082.11
2018-07-19T04:28:17.780Z,99099.67
2018-07-19T04:30:48.486Z,99109.03
2018-07-19T04:33:18.638Z,99102.72
2018-07-19T04:35:48.682Z,99107.66
2018-07-19T04:38:19.053Z,99105.17
2018-07-19T04:40:49.377Z,99109.29
2018-07-19T04:43:20.298Z,99105.55
2018-07-19T04:45:50.435Z,99105.04
2018-07-19T04:48:20.879Z,99111.35
2018-07-19T04:50:51.226Z,99111.61
2018-07-19T04:53:21.706Z,99108.30
2018-07-19T04:55:53.046Z,99108.78
2018-07-19T04:58:23.115Z,99108.78
2018-07-19T05:00:53.558Z,99107.91
2018-07-19T05:03:24.083Z,99111.70
2018-07-19T05:05:55.193Z,99110.89
2018-07-19T05:08:25.461Z,99118.30
2018-07-19T05:10:55.867Z,99113.08
2018-07-19T05:13:26.706Z,99123.81
2018-07-19T05:15:58.558Z,99121.66
2018-07-19T05:18:30.075Z,99122.77
2018-07-19T05:21:00.250Z,99111.78
2018-07-19T05:23:30.901Z,99129.64
2018-07-19T05:26:01.715Z,99125.27
2018-07-19T05:28:32.018Z,99133.77
2018-07-19T05:31:02.241Z,99116.16
2018-07-19T05:33:33.043Z,99125.52
2018-07-19T05:36:03.393Z,99120.33
2018-07-19T05:38:33.703Z,99120.11
2018-07-19T05:41:04.049Z,99125.39
2018-07-19T05:43:34.875Z,99119.03
2018-07-19T05:46:05.694Z,99130.28
2018-07-19T05:48:36.155Z,99138.75
2018-07-19T05:51:06.772Z,99137.33
2018-07-19T05:53:37.065Z,99136.77
2018-07-19T05:56:07.192Z,99133.43
2018-07-19T05:58:37.402Z,99125.17
2018-07-19T06:01:08.030Z,99130.03
2018-07-19T06:03:38.415Z,99132.78
2018-07-19T06:06:08.773Z,99141.02
2018-07-19T06:08:39.333Z,99141.33
2018-07-19T06:11:10.063Z,99146.03
2018-07-19T06:13:40.432Z,99138.35
2018-07-19T06:16:10.518Z,99144.41
2018-07-19T06:18:41.720Z,99147.97
2018-07-19T06:21:12.365Z,99150.16
2018-07-19T06:23:42.753Z,99151.20
2018-07-19T06:26:16.791Z,99151.55
2018-07-19T06:28:47.884Z,99143.44
2018-07-19T06:31:18.612Z,99148.72
2018-07-19T06:33:49.121Z,99147.82
2018-07-19T06:36:19.496Z,99150.18
2018-07-19T06:38:49.906Z,99152.85
2018-07-19T06:41:20.274Z,99142.67
2018-07-19T06:43:50.603Z,99144.60
2018-07-19T06:46:21.385Z,99147.22
2018-07-19T06:48:51.629Z,99138.49
2018-07-19T06:51:21.884Z,99139.98
2018-07-19T06:53:52.306Z,99145.83
2018-07-19T06:56:22.530Z,99151.16
2018-07-19T06:58:52.790Z,99152.39
2018-07-19T07:01:23.060Z,99155.06
2018-07-19T07:03:53.747Z,99154.13
2018-07-19T07:06:24.093Z,99160.62
2018-07-19T07:08:54.464Z,99161.34
2018-07-19T07:11:24.836Z,99160.08
2018-07-19T07:13:55.501Z,99161.53
2018-07-19T07:16:26.103Z,99165.52
2018-07-19T07:18:56.467Z,99170.84
2018-07-19T07:21:27.016Z,99162.69
2018-07-19T07:23:58.134Z,99166.42
2018-07-19T07:26:28.487Z,99155.31
2018-07-19T07:28:58.703Z,99162.70
2018-07-19T07:31:28.887Z,99162.11
2018-07-19T07:33:59.061Z,99155.16
2018-07-19T07:36:29.581Z,99155.98
2018-07-19T07:39:01.938Z,99158.33
2018-07-19T07:41:32.316Z,99154.83
2018-07-19T07:44:02.799Z,99153.86
2018-07-19T07:46:33.248Z,99162.28
2018-07-19T07:49:03.630Z,99154.99
2018-07-19T07:51:33.647Z,99154.05
2018-07-19T07:54:04.194Z,99151.45
2018-07-19T07:56:34.874Z,99161.00
2018-07-19T07:59:05.552Z,99150.95
2018-07-19T08:01:35.804Z,99160.66
2018-07-19T08:04:06.381Z,99155.13
2018-07-19T08:06:36.488Z,99153.34
2018-07-19T08:09:08.065Z,99161.20
2018-07-19T08:11:39.078Z,99147.81
2018-07-19T08:14:09.504Z,99155.57
2018-07-19T08:16:40.243Z,99152.30
2018-07-19T08:19:10.524Z,99147.33
2018-07-19T08:21:41.346Z,99152.29
2018-07-19T08:24:11.826Z,99154.53
2018-07-19T08:26:42.162Z,99147.77
2018-07-19T08:29:12.475Z,99150.92
2018-07-19T08:31:43.015Z,99151.78
2018-07-19T08:34:13.470Z,99143.33
2018-07-19T08:36:43.652Z,99152.77
2018-07-19T08:39:14.894Z,99152.84
2018-07-19T08:41:45.452Z,99149.98
2018-07-19T08:44:15.875Z,99153.13
2018-07-19T08:46:46.487Z,99144.42
2018-07-19T08:49:16.938Z,99150.40
2018-07-19T08:51:47.565Z,99129.83
2018-07-19T08:54:18.141Z,99138.85
2018-07-19T08:56:48.945Z,99133.80
2018-07-19T08:59:19.413Z,99136.02
2018-07-19T09:01:49.663Z,99135.75
2018-07-19T09:04:20.994Z,99133.13
2018-07-19T09:06:51.439Z,99131.55
2018-07-19T09:09:21.613Z,99131.44
2018-07-19T09:11:51.906Z,99127.92
2018-07-19T09:14:22.443Z,99125.77
2018-07-19T09:16:53.166Z,99127.74
2018-07-19T09:19:23.489Z,99125.59
2018-07-19T09:21:54.261Z,99134.72
2018-07-19T09:24:24.718Z,99122.86
2018-07-19T09:26:55.151Z,99129.81
2018-07-19T09:29:25.646Z,99126.95
2018-07-19T09:31:56.448Z,99123.45
2018-07-19T09:34:26.967Z,99132.11
2018-07-19T09:36:58.051Z,99127.72
2018-07-19T09:39:28.735Z,99122.47
2018-07-19T09:41:58.733Z,99131.91
2018-07-19T09:44:29.820Z,99119.70
2018-07-19T09:47:00.100Z,99128.45
2018-07-19T09:49:30.307Z,99117.63
2018-07-19T09:52:00.427Z,99119.83
2018-07-19T09:54:41.459Z,99121.70
2018-07-19T09:57:11.465Z,99115.56
2018-07-19T09:59:43.441Z,99109.02
2018-07-19T10:02:13.504Z,99116.52
2018-07-19T10:04:43.531Z,99117.91
2018-07-19T10:07:14.081Z,99122.86
2018-07-19T10:09:44.464Z,99113.98
2018-07-19T10:12:15.766Z,99129.89
2018-07-19T10:14:46.186Z,99116.42
2018-07-19T10:17:16.462Z,99117.11
2018-07-19T10:19:46.770Z,99118.64
2018-07-19T10:22:16.650Z,99114.72
2018-07-19T10:24:46.752Z,99110.92
2018-07-19T10:27:19.902Z,99109.42
2018-07-19T10:29:50.473Z,99110.91
2018-07-19T10:32:20.619Z,99114.72
2018-07-19T10:34:50.952Z,99112.20
2018-07-19T10:37:21.163Z,99116.47
2018-07-19T10:39:51.314Z,99105.95
2018-07-19T10:42:29.896Z,99100.88
2018-07-19T10:45:00.020Z,99105.94
2018-07-19T10:47:30.658Z,99097.50
2018-07-19T10:50:00.824Z,99099.47
2018-07-19T10:52:30.879Z,99105.25
2018-07-19T10:55:00.891Z,99093.00
2018-07-19T10:57:31.135Z,99101.75
2018-07-19T11:00:01.337Z,99098.95
2018-07-19T11:02:31.254Z,99106.55
2018-07-19T11:05:03.999Z,99110.33
2018-07-19T11:07:34.097Z,99097.83
2018-07-19T11:10:04.382Z,99093.09
2018-07-19T11:12:34.970Z,99090.31
2018-07-19T11:15:05.503Z,99091.66
2018-07-19T11:17:38.277Z,99093.23
2018-07-19T11:20:09.579Z,99088.48
2018-07-19T11:22:40.053Z,99092.59
2018-07-19T11:25:09.932Z,99093.59
2018-07-19T11:27:39.921Z,99097.01
2018-07-19T11:30:09.532Z,99086.33
2018-07-19T11:32:39.448Z,99080.86
2018-07-19T11:35:09.619Z,99102.23
2018-07-19T11:37:40.353Z,99090.72
2018-07-19T11:40:10.946Z,99097.02
2018-07-19T11:42:41.209Z,99102.31
2018-07-19T11:45:11.429Z,99085.52
2018-07-19T11:47:41.549Z,99091.77
2018-07-19T11:50:11.979Z,99090.08
2018-07-19T11:52:42.042Z,99083.30
2018-07-19T11:55:12.733Z,99077.72
2018-07-19T11:57:43.826Z,99081.30
2018-07-19T12:00:14.262Z,99096.20
2018-07-19T12:02:44.407Z,99081.50
2018-07-19T12:05:14.742Z,99088.24
2018-07-19T12:07:45.218Z,99082.69
2018-07-19T12:10:15.346Z,99077.56
2018-07-19T12:12:45.403Z,99083.58
2018-07-19T12:15:15.446Z,99082.19
2018-07-19T12:17:45.608Z,99085.13
2018-07-19T12:20:15.368Z,99083.70
2018-07-19T12:22:45.283Z,99079.69
2018-07-19T12:25:15.295Z,99078.34
2018-07-19T12:27:45.578Z,99083.46
2018-07-19T12:30:15.425Z,99089.45
2018-07-19T12:32:45.433Z,99077.52
2018-07-19T12:35:15.521Z,99077.40
2018-07-19T12:37:45.484Z,99076.79
2018-07-19T12:40:16.376Z,99077.83
2018-07-19T12:42:46.153Z,99071.46
2018-07-19T12:45:16.138Z,99069.34
2018-07-19T12:47:45.981Z,99071.02
2018-07-19T12:50:16.001Z,99074.53
2018-07-19T12:52:46.070Z,99069.92
2018-07-19T12:55:16.078Z,99075.48
2018-07-19T12:57:46.029Z,99073.89
2018-07-19T13:00:21.849Z,99067.75
2018-07-19T13:02:51.890Z,99062.33
2018-07-19T13:05:21.746Z,99068.20
2018-07-19T13:07:51.639Z,99062.02
2018-07-19T13:10:21.696Z,99060.70
2018-07-19T13:12:52.213Z,99058.09
2018-07-19T13:15:23.386Z,99060.08
2018-07-19T13:17:53.667Z,99068.36
2018-07-19T13:20:23.805Z,99059.92
2018-07-19T13:22:53.756Z,99056.05
2018-07-19T13:25:24.858Z,99059.12
2018-07-19T13:27:54.880Z,99054.05
2018-07-19T13:30:24.854Z,99049.80
2018-07-19T13:32:54.798Z,99051.03
2018-07-19T13:35:24.786Z,99039.16
2018-07-19T13:37:55.012Z,99040.61
2018-07-19T13:40:24.891Z,99039.92
2018-07-19T13:42:54.774Z,99034.73
2018-07-19T13:45:26.284Z,99036.05
2018-07-19T13:47:56.081Z,99036.16
2018-07-19T13:50:25.887Z,99043.82
2018-07-19T13:53:06.564Z,99042.43
2018-07-19T13:55:36.275Z,99040.81
2018-07-19T13:58:06.188Z,99034.66
2018-07-19T14:00:55.793Z,99033.91
2018-07-19T14:03:25.951Z,99031.63
2018-07-19T14:05:56.393Z,99025.36
2018-07-19T14:08:26.381Z,99022.27
2018-07-19T14:10:56.985Z,99029.87
2018-07-19T14:13:26.843Z,99030.09
2018-07-19T14:15:57.336Z,99029.87
2018-07-19T14:18:27.223Z,99018.50
2018-07-19T14:20:57.158Z,99017.11
2018-07-19T14:23:27.240Z,99024.08
2018-07-19T14:25:57.085Z,99015.53
2018-07-19T14:28:27.126Z,99021.82
2018-07-19T14:30:56.998Z,99007.71
2018-07-19T14:33:27.886Z,99015.84
2018-07-19T14:35:57.705Z,99010.10
2018-07-19T14:38:27.715Z,99011.59
2018-07-19T14:40:58.038Z,99013.92
2018-07-19T14:43:28.300Z,98999.47
2018-07-19T14:45:58.931Z,98999.15
2018-07-19T14:48:28.976Z,99014.34
2018-07-19T14:50:58.979Z,99008.02
2018-07-19T14:53:28.995Z,99015.42
2018-07-19T14:55:58.867Z,99003.11
2018-07-19T14:58:28.991Z,99000.51
2018-07-19T15:00:58.979Z,99000.91
2018-07-19T15:03:28.861Z,99004.64
2018-07-19T15:05:59.019Z,99002.66
2018-07-19T15:08:28.878Z,98998.12
2018-07-19T15:10:59.091Z,98995.92
2018-07-19T15:13:28.977Z,98988.52
2018-07-19T15:15:59.565Z,98993.05
2018-07-19T15:18:29.368Z,98987.79
2018-07-19T15:20:59.209Z,98978.04
2018-07-19T15:23:29.163Z,98974.94
2018-07-19T15:25:59.139Z,98984.52
2018-07-19T15:28:28.963Z,98981.77
2018-07-19T15:30:58.888Z,98977.45
2018-07-19T15:33:28.713Z,98992.81
2018-07-19T15:35:58.813Z,98990.88
2018-07-19T15:38:28.777Z,98988.88
2018-07-19T15:40:58.620Z,98984.28
2018-07-19T15:43:28.429Z,98989.05
2018-07-19T15:45:58.282Z,98977.69
2018-07-19T15:48:27.923Z,98977.49
2018-07-19T15:50:58.623Z,98976.51
2018-07-19T15:53:28.467Z,98979.73
2018-07-19T15:55:58.412Z,98982.93
2018-07-19T15:58:28.368Z,98975.75
2018-07-19T16:00:58.955Z,98970.17
2018-07-19T16:03:28.795Z,98974.20
2018-07-19T16:05:58.860Z,98978.97
2018-07-19T16:08:28.829Z,98973.18
2018-07-19T16:10:59.298Z,98965.04
2018-07-19T16:13:29.181Z,98979.97
2018-07-19T16:15:59.064Z,98964.86
2018-07-19T16:18:28.908Z,98970.07
2018-07-19T16:20:59.504Z,98970.48
2018-07-19T16:23:29.328Z,98961.75
2018-07-19T16:26:05.895Z,98966.97
2018-07-19T16:28:35.699Z,98962.16
2018-07-19T16:31:05.762Z,98956.72
2018-07-19T16:33:35.576Z,98958.44
2018-07-19T16:36:05.602Z,98955.39
2018-07-19T16:38:35.483Z,98955.39
2018-07-19T16:41:05.538Z,98951.44
2018-07-19T16:43:35.629Z,98956.59
2018-07-19T16:46:06.074Z,98950.77
2018-07-19T16:48:36.022Z,98950.32
2018-07-19T16:51:05.938Z,98946.55
2018-07-19T16:53:36.076Z,98939.36
2018-07-19T16:56:06.334Z,98953.46
2018-07-19T16:58:36.351Z,98938.05
2018-07-19T17:01:06.475Z,98946.28
2018-07-19T17:03:36.706Z,98943.45
2018-07-19T17:06:06.975Z,98947.63
2018-07-19T17:08:37.263Z,98941.47
2018-07-19T17:11:07.380Z,98948.63
2018-07-19T17:13:37.607Z,98939.48
2018-07-19T17:16:07.748Z,98938.83
2018-07-19T17:18:38.074Z,98946.99
2018-07-19T17:21:08.244Z,98945.16
2018-07-19T17:23:38.589Z,98946.55
2018-07-19T17:26:08.620Z,98943.36
2018-07-19T17:28:38.879Z,98941.74
2018-07-19T17:31:09.064Z,98947.31
2018-07-19T17:33:39.604Z,98953.25
2018-07-19T17:36:12.035Z,98958.04
2018-07-19T17:38:42.153Z,98936.77
2018-07-19T17:41:12.505Z,98946.97
2018-07-19T17:43:43.153Z,98948.53
2018-07-19T17:46:13.358Z,98952.44
2018-07-19T17:48:44.292Z,98957.78
2018-07-19T17:51:14.498Z,98963.36
2018-07-19T17:53:44.745Z,98961.77
2018-07-19T17:56:15.365Z,98959.08
2018-07-19T17:58:45.507Z,98955.02
2018-07-19T18:01:15.833Z,98961.71
2018-07-19T18:03:46.384Z,98964.66
2018-07-19T18:06:16.816Z,98961.78
2018-07-19T18:08:47.109Z,98969.52
2018-07-19T18:11:17.877Z,98965.09
2018-07-19T18:13:48.115Z,98966.20
2018-07-19T18:16:18.597Z,98972.66
2018-07-19T18:18:49.078Z,98977.91
2018-07-19T18:21:19.407Z,98980.80
2018-07-19T18:23:49.631Z,98977.73
2018-07-19T18:26:20.532Z,98974.25
2018-07-19T18:28:51.360Z,98971.78
2018-07-19T18:31:21.535Z,98982.84
2018-07-19T18:33:51.523Z,98984.33
2018-07-19T18:36:21.934Z,98983.62
2018-07-19T18:38:52.397Z,98982.89
2018-07-19T18:41:22.703Z,98989.34
2018-07-19T18:43:53.598Z,98990.00
2018-07-19T18:46:23.990Z,98993.06
2018-07-19T18:48:54.634Z,98991.31
2018-07-19T18:51:26.144Z,98987.59
2018-07-19T18:53:56.571Z,99000.19
2018-07-19T18:56:27.360Z,98998.50
2018-07-19T18:58:57.944Z,99002.95
2018-07-19T19:01:28.004Z,99005.42
2018-07-19T19:03:58.299Z,99007.25
2018-07-19T19:06:28.717Z,99018.89
2018-07-19T19:08:59.787Z,99015.55
2018-07-19T19:11:30.243Z,99019.41
2018-07-19T19:14:00.485Z,99021.30
2018-07-19T19:16:30.739Z,99022.39
2018-07-19T19:19:00.996Z,99019.53
2018-07-19T19:21:31.503Z,99029.75
2018-07-19T19:24:02.087Z,99029.47
2018-07-19T19:26:32.484Z,99030.78
2018-07-19T19:29:03.032Z,99029.89
2018-07-19T19:31:33.316Z,99031.20
2018-07-19T19:34:04.010Z,99023.48
2018-07-19T19:36:34.308Z,99027.22
2018-07-19T19:39:06.719Z,99023.89
2018-07-19T19:41:37.718Z,99033.75
2018-07-19T19:44:08.088Z,99039.80
2018-07-19T19:46:38.821Z,99041.65
2018-07-19T19:49:09.185Z,99046.09
2018-07-19T19:51:39.372Z,99047.74
2018-07-19T19:54:09.782Z,99051.35
2018-07-19T19:56:40.107Z,99050.45
2018-07-19T19:59:10.411Z,99055.34
2018-07-19T20:01:40.572Z,99055.02
2018-07-19T20:04:10.873Z,99057.69
2018-07-19T20:06:41.186Z,99057.49
2018-07-19T20:09:12.382Z,99063.15
2018-07-19T20:11:42.706Z,99063.63
2018-07-19T20:14:13.015Z,99069.45
2018-07-19T20:16:43.439Z,99070.86
2018-07-19T20:19:13.864Z,99066.85
2018-07-19T20:21:44.475Z,99070.45
2018-07-19T20:24:14.633Z,99070.92
2018-07-19T20:26:45.092Z,99072.11
2018-07-19T20:29:15.441Z,99077.46
2018-07-19T20:31:48.038Z,99073.54
2018-07-19T20:34:20.563Z,99078.55
2018-07-19T20:36:49.287Z,99076.34
2018-07-19T20:39:19.765Z,99076.14
2018-07-19T20:41:50.235Z,99079.41
2018-07-19T20:44:21.887Z,99081.02
2018-07-19T20:46:52.306Z,99080.00
2018-07-19T20:49:22.770Z,99082.19
2018-07-19T20:51:53.229Z,99089.36
2018-07-19T20:54:23.566Z,99087.06
2018-07-19T20:56:53.790Z,99085.90
2018-07-19T20:59:24.080Z,99097.80
2018-07-19T21:01:54.828Z,99096.06
2018-07-19T21:04:24.935Z,99096.76
2018-07-19T21:06:55.668Z,99105.16
2018-07-19T21:09:26.527Z,99103.21
2018-07-19T21:11:57.152Z,99097.33
2018-07-19T21:14:27.665Z,99098.45
2018-07-19T21:16:57.839Z,99102.00
2018-07-19T21:19:28.162Z,99107.98
2018-07-19T21:21:58.701Z,99106.61
2018-07-19T21:24:29.155Z,99101.73
2018-07-19T21:26:59.630Z,99107.27
2018-07-19T21:29:30.370Z,99113.48
2018-07-19T21:32:01.446Z,99111.05
2018-07-19T21:34:33.476Z,99110.24
2018-07-19T21:37:04.236Z,99111.98
2018-07-19T21:39:34.600Z,99116.45
2018-07-19T21:42:04.874Z,99118.77
2018-07-19T21:44:35.409Z,99117.14
2018-07-19T21:47:06.638Z,99119.91
2018-07-19T21:49:37.875Z,99128.53
2018-07-19T21:52:08.524Z,99124.39
2018-07-19T21:54:39.505Z,99128.89
2018-07-19T21:57:10.111Z,99128.89
2018-07-19T21:59:40.272Z,99131.66
2018-07-19T22:02:12.889Z,99127.27
2018-07-19T22:04:42.980Z,99135.56
2018-07-19T22:07:13.074Z,99132.34
2018-07-19T22:09:43.143Z,99127.14
2018-07-19T22:12:13.652Z,99125.88
2018-07-19T22:14:44.127Z,99122.30
2018-07-19T22:17:14.334Z,99120.44
2018-07-19T22:19:44.550Z,99125.27
2018-07-19T22:22:14.752Z,99109.78
2018-07-19T22:24:45.322Z,99122.11
2018-07-19T22:27:15.182Z,99127.75
2018-07-19T22:29:45.562Z,99133.15
2018-07-19T22:32:15.714Z,99132.45
2018-07-19T22:34:45.847Z,99137.41
2018-07-19T22:37:16.254Z,99135.55
2018-07-19T22:39:46.481Z,99139.44
2018-07-19T22:42:16.768Z,99144.16
2018-07-19T22:44:47.109Z,99145.33
2018-07-19T22:47:17.268Z,99142.77
2018-07-19T22:49:47.495Z,99142.32
2018-07-19T22:52:18.083Z,99147.60
2018-07-19T22:54:48.429Z,99147.96
2018-07-19T22:57:18.611Z,99147.47
2018-07-19T22:59:48.737Z,99145.39
2018-07-19T23:02:18.829Z,99145.50
2018-07-19T23:04:49.067Z,99148.02
2018-07-19T23:07:19.355Z,99148.59
2018-07-19T23:09:49.683Z,99151.36
2018-07-19T23:12:20.111Z,99160.56
2018-07-19T23:14:50.474Z,99153.85
2018-07-19T23:17:20.685Z,99154.40
2018-07-19T23:19:51.014Z,99153.45
2018-07-19T23:22:21.730Z,99147.28
2018-07-19T23:24:52.261Z,99152.45
2018-07-19T23:27:22.441Z,99151.53
2018-07-19T23:29:52.907Z,99145.35
2018-07-19T23:32:23.341Z,99151.05
2018-07-19T23:34:53.687Z,99152.66
2018-07-19T23:37:30.100Z,99155.84
2018-07-19T23:40:10.136Z,99164.20
2018-07-19T23:42:43.384Z,99162.11
2018-07-19T23:46:16.808Z,99169.44
2018-07-19T23:48:47.173Z,99166.14
2018-07-19T23:51:17.377Z,99172.69
2018-07-19T23:53:47.667Z,99170.91
2018-07-19T23:56:18.083Z,99166.95
2018-07-19T23:58:48.245Z,99172.33
